• Join FlightAware (Why Join?)
  • Login
  • US Flag 
05:39PM EST


 

Airport Tracker/Info


-or-


 

Live Flight TrackerFlight Track Log ✈ N86HC ✈ 21-Jun-2013 ✈ KBMG - KMNN

Flight Track Log - Related Links

Times and Time Zones

All times are in EDT time to prevent confusion due to time zone crossing. See the N86HC flight status page for this flight to view local times or setup timezone preferences in your user account.

Time Position Orientation Groundspeed Altitude Reporting Facility
EDT Latitude Longitude Course Direction KTS MPH feet Rate Location/Type
07:53PM 39.2011 -86.5017 35° Northeast 122 140 3,900  Level Indianapolis Center
07:54PM 39.2264 -86.4706 44° Northeast 125 144 4,500 480 Climbing Indianapolis Center
07:55PM 39.2519 -86.4364 46° Northeast 130 150 4,900 240 Climbing Indianapolis Center
07:56PM 39.2781 -86.4003 47° Northeast 135 155 5,100 60 Climbing Indianapolis Center
07:57PM 39.2752 -86.2920 61° Northeast  Level FlightAware Approximate
07:57PM 39.3058 -86.3556 51° Northeast 153 176 5,100  Level Indianapolis Center
07:58PM 39.3358 -86.3108 49° Northeast 163 188 5,100  Level Indianapolis Center
07:59PM 39.3717 -86.2578 49° Northeast 164 189 5,100  Level Indianapolis Center
08:00PM 39.4011 -86.2147 48° Northeast 162 186 5,100  Level Indianapolis Center
08:01PM 39.4303 -86.1719 49° Northeast 160 184 5,100  Level Indianapolis Center
08:02PM 39.4503 -86.1208 63° Northeast 160 184 5,100  Level Indianapolis Center
08:03PM 39.4706 -86.0703 63° Northeast 159 183 5,100  Level Indianapolis Center
08:04PM 39.4911 -86.0197 62° Northeast 160 184 5,100  Level Indianapolis Center
08:05PM 39.5156 -85.9586 63° Northeast 161 185 5,100  Level Indianapolis Center
08:06PM 39.5356 -85.9075 63° Northeast 160 184 5,100  Level Indianapolis Center
08:07PM 39.5561 -85.8572 62° Northeast 161 185 5,100  Level Indianapolis Center
08:08PM 39.5756 -85.8061 64° Northeast 159 183 5,100  Level Indianapolis Center
08:09PM 39.5958 -85.7544 63° Northeast 160 184 5,100  Level Indianapolis Center
08:10PM 39.6169 -85.7019 62° Northeast 163 188 5,100  Level Indianapolis Center
08:11PM 39.6414 -85.6411 62° Northeast 161 185 5,100  Level Indianapolis Center
08:12PM 39.6614 -85.5878 64° Northeast 162 186 5,100  Level Indianapolis Center
08:13PM 39.6825 -85.5364 62° Northeast 163 188 5,100  Level Indianapolis Center
08:14PM 39.7031 -85.4839 63° Northeast 163 188 5,100  Level Indianapolis Center
08:16PM 39.7236 -85.4308 63° Northeast 163 188 5,100  Level Indianapolis Center
08:17PM 39.7442 -85.3786 63° Northeast 164 189 5,100  Level Indianapolis Center
08:18PM 39.7694 -85.3139 63° Northeast 166 191 5,100  Level Indianapolis Center
08:19PM 39.7903 -85.2600 63° Northeast 167 192 5,100  Level Indianapolis Center
08:20PM 39.8114 -85.2083 62° Northeast 165 190 5,100  Level Indianapolis Center
08:21PM 39.8317 -85.1533 64° Northeast 166 191 5,100  Level Indianapolis Center
08:22PM 39.8517 -85.0997 64° Northeast 166 191 5,100  Level Indianapolis Center
08:23PM 39.8725 -85.0444 64° Northeast 169 194 5,100  Level Indianapolis Center
08:24PM 39.8986 -84.9806 62° Northeast 168 193 5,100  Level Indianapolis Center
08:25PM 39.9200 -84.9250 63° Northeast 170 196 5,100  Level Indianapolis Center
08:26PM 39.9394 -84.8694 65° Northeast 168 193 5,100  Level Indianapolis Center
08:27PM 39.9633 -84.8147 60° Northeast 170 196 5,100  Level Indianapolis Center
08:28PM 39.9850 -84.7544 65° Northeast 170 196 5,100  Level Indianapolis Center
08:29PM 40.0061 -84.7003 63° Northeast 171 197 5,100  Level Indianapolis Center
08:30PM 40.0275 -84.6461 63° Northeast 168 193 5,100  Level Indianapolis Center
08:31PM 40.0464 -84.5942 65° Northeast 168 193 5,100  Level Indianapolis Center
08:32PM 40.0675 -84.5397 63° Northeast 170 196 5,100  Level Indianapolis Center
08:33PM 40.0947 -84.4706 63° Northeast 172 198 5,100  Level Indianapolis Center
08:34PM 40.1144 -84.4158 65° Northeast 169 194 5,100  Level Indianapolis Center
08:35PM 40.1342 -84.3658 63° Northeast 169 194 5,100  Level Indianapolis Center
08:36PM 40.1572 -84.3053 64° Northeast 169 194 5,100  Level Indianapolis Center
08:37PM 40.1742 -84.2567 65° Northeast 170 196 5,100  Level Indianapolis Center
08:38PM 40.1956 -84.1994 64° Northeast 170 196 5,100  Level Indianapolis Center
08:39PM 40.2214 -84.1344 62° Northeast 171 197 5,100  Level Indianapolis Center
08:40PM 40.2414 -84.0797 64° Northeast 171 197 5,100  Level Indianapolis Center
08:41PM 40.2631 -84.0228 63° Northeast 172 198 5,100  Level Indianapolis Center
08:42PM 40.2839 -83.9658 64° Northeast 172 198 5,100  Level Indianapolis Center
08:43PM 40.3083 -83.9017 63° Northeast 169 194 5,100  Level Indianapolis Center
08:44PM 40.3292 -83.8453 64° Northeast 169 194 5,100  Level Indianapolis Center
08:45PM 40.3500 -83.7875 65° Northeast 171 197 5,100  Level Indianapolis Center
08:46PM 40.3719 -83.7306 63° Northeast 172 198 5,100  Level Indianapolis Center
08:47PM 40.3928 -83.6733 64° Northeast 173 199 5,100  Level Indianapolis Center
08:48PM 40.4131 -83.6186 64° Northeast 167 192 5,100  Level Indianapolis Center
08:49PM 40.4336 -83.5625 64° Northeast 168 193 5,100  Level Indianapolis Center
08:50PM 40.4536 -83.5075 64° Northeast 166 191 5,100  Level Indianapolis Center
08:52PM 40.4733 -83.4531 65° Northeast 164 189 5,100 -180 Level Indianapolis Center
08:53PM 40.4925 -83.3997 65° Northeast 162 186 4,800 -480 Descending Indianapolis Center
08:54PM 40.5147 -83.3419 63° Northeast 172 198 4,200 -540 Descending Indianapolis Center
08:55PM 40.5356 -83.2842 65° Northeast 174 200 3,700 -540 Descending Indianapolis Center
08:56PM 40.5586 -83.2194 65° Northeast 168 193 3,200 -480 Descending Indianapolis Center
08:57PM 40.5725 -83.1611 73° East 166 191 2,800 -420 Descending Indianapolis Center